CheckWX is a tool to help pilots better visualize weather data.  It is not intended as a substitute for an official pre-flight weather briefing.

19:20:25 UTC

K88 METAR
Allen County Airport
Iola, Kansas, USA
Current

25 mins ago

KK88 231855Z AUTO 19020G24KT 10SM SCT008 SCT018 BKN041 A2950 RMK AO1
Observed
Feb-23 @ 18:55 UTC
Wind
  • 190° at 20 KTS
  • Gusting to 24 KTS
Visibility
10 SM
Flight Rules
VFR
Cloud Levels
  • Scattered at 800' AGL
  • Scattered at 1,800' AGL
  • Broken at 4,100' AGL
Altimeter
29.5" Hg
Pressure
999.02 hPa
Previous

45 mins ago

KK88 231835Z AUTO 18016G19KT 7SM BKN004 BKN009 OVC019 A2951 RMK AO1
Observed
Feb-23 @ 18:35 UTC
Wind
  • 180° at 16 KTS
  • Gusting to 19 KTS
Visibility
7 SM
Flight Rules
LIFR
Cloud Levels
  • Broken at 400' AGL
  • Broken at 900' AGL
  • Overcast at 1,900' AGL
Altimeter
29.51" Hg
Pressure
999.32 hPa
Previous

1 hour ago

KK88 231815Z AUTO 13009KT 4SM OVC002 08/08 A2952 RMK AO1 T00840084
Observed
Feb-23 @ 18:15 UTC
Wind
  • 130° at 9 KTS
Visibility
4 SM
Flight Rules
LIFR
Cloud Levels
  • Overcast at 200' AGL
Temperature
C / 46°F
Dewpoint
C / 46°F
Humidity
100%
Altimeter
29.52" Hg
Pressure
999.62 hPa